Latest Weather Observations for Albury

IDV60801

Issued at 8:05 pm EDT Friday 6 March 2015 (issued every 30 minutes, with the page automatically refreshed every 10 minutes)

About weather observations | Map of weather stations | Latest weather observations for VIC | Other Formats
Station Details ID: 072160 Name: ALBURY AIRPORT AWS Lat: -36.07 Lon: 146.95 Height: 163.5 m
Data from the previous 72 hours. | See also: Recent months at Albury
Date/Time
EDT
Temp
°C
App
Temp
°C
Dew
Point
Rel
Hum
%
Delta-T
°C
Wind Press
QNH
hPa
Press
MSL
hPa
Rain
since 9 am
mm
Dir
 
Spd
km/h
Gust
km/h
Spd
kts
Gust
kts
06/08:00pm 18.5 17.2 10.1 58 4.5 NNW 7 7 4 4 1010.3 1009.7 0.0
06/07:30pm 19.2 17.1 9.9 55 5.0 WNW 11 13 6 7 1010.0 1009.4 0.0
06/07:00pm 20.5 17.8 10.3 52 5.6 WNW 15 20 8 11 1010.0 1009.4 0.0
06/06:30pm 20.9 17.4 10.1 50 5.9 WNW 19 24 10 13 1010.0 1009.4 0.0
06/05:30pm 22.0 19.3 10.2 47 6.5 WNW 15 24 8 13 1009.8 1009.2 0.0
06/05:00pm 21.3 18.3 9.2 46 6.5 W 15 24 8 13 1009.8 1009.2 0.0
06/04:30pm 20.9 17.1 9.2 47 6.3 W 19 24 10 13 1010.0 1009.4 0.0
06/04:00pm 20.5 17.1 9.1 48 6.1 WNW 17 20 9 11 1010.1 1009.5 0.0
06/03:30pm 20.7 17.3 9.3 48 6.1 WSW 17 26 9 14 1010.4 1009.8 0.0
06/03:00pm 20.0 18.5 9.0 49 5.8 WNW 7 13 4 7 1010.6 1010.0 0.0
06/02:30pm 19.5 15.9 8.5 49 5.8 WNW 17 26 9 14 1010.9 1010.3 0.0
06/02:00pm 19.6 15.9 8.0 47 6.0 WSW 17 26 9 14 1011.0 1010.4 0.0
06/01:30pm 19.7 17.3 8.7 49 5.8 WSW 11 20 6 11 1011.3 1010.8 0.0
06/01:00pm 18.7 14.7 8.1 50 5.5 WSW 19 26 10 14 1011.6 1011.1 0.0
06/12:30pm 18.3 14.1 7.4 49 5.6 W 19 28 10 15 1011.7 1011.2 0.0
06/12:00pm 17.5 13.1 7.3 51 5.2 WSW 20 28 11 15 1012.1 1011.6 0.0
06/11:30am 16.9 13.4 7.3 53 4.8 W 15 24 8 13 1012.1 1011.6 0.0
06/11:00am 17.2 13.3 7.0 51 5.1 W 17 32 9 17 1012.2 1011.7 0.0
06/10:30am 17.2 12.8 6.7 50 5.2 SW 19 30 10 16 1012.2 1011.7 0.0
06/10:00am 15.5 11.7 5.7 52 4.7 W 15 24 8 13 1012.4 1011.9 0.0
06/09:30am 14.9 10.4 6.0 55 4.3 W 19 24 10 13 1012.4 1011.9 0.0
06/08:30am 13.7 9.4 5.1 56 4.0 W 17 20 9 11 1011.8 1011.3 0.0
06/08:00am 13.4 9.1 5.1 57 3.9 WNW 17 22 9 12 1011.9 1011.4 0.0
06/07:30am 11.9 8.3 4.9 62 3.2 WNW 13 20 7 11 1011.9 1011.4 0.0
06/07:00am 11.5 7.4 4.5 62 3.2 WNW 15 22 8 12 1011.5 1011.0 0.0
06/06:30am 11.9 8.2 4.6 61 3.3 W 13 17 7 9 1011.5 1011.0 0.0
06/05:30am 12.6 8.5 4.3 57 3.8 W 15 22 8 12 1011.9 1011.4 0.0
06/05:00am 12.5 8.8 4.5 58 3.7 WNW 13 17 7 9 1011.9 1011.4 0.0
06/04:30am 12.4 9.1 4.4 58 3.7 WNW 11 13 6 7 1012.4 1011.9 0.0
06/04:00am 11.3 7.8 3.6 59 3.4 W 11 15 6 8 1012.7 1012.2 0.0
06/03:30am 11.9 8.6 2.6 53 4.1 WSW 9 9 5 5 1012.6 1012.1 0.0
06/03:00am 12.4 9.4 2.3 50 4.4 W 7 9 4 5 1012.7 1012.2 0.0
06/02:30am 12.4 9.4 2.0 49 4.5 WSW 7 11 4 6 1013.1 1012.6 0.0
06/02:00am 13.1 10.2 2.6 49 4.7 W 7 11 4 6 1013.2 1012.7 0.0
06/01:30am 13.2 9.5 2.4 48 4.8 WNW 11 13 6 7 1013.7 1013.2 0.0
06/01:00am 13.7 10.0 2.3 46 5.0 NW 11 13 6 7 1013.8 1013.3 0.0
06/12:30am 14.6 11.6 2.2 43 5.5 WNW 7 9 4 5 1013.9 1013.4 0.0
06/12:00am 14.8 11.4 2.0 42 5.7 WNW 9 9 5 5 1014.1 1013.6 0.0
 
Date/Time
EDT
Temp
°C
App
Temp
°C
Dew
Point
Rel
Hum
%
Delta-T
°C
Wind Press
QNH
hPa
Press
MSL
hPa
Rain
since 9 am
mm
Dir
 
Spd
km/h
Gust
km/h
Spd
kts
Gust
kts
05/11:30pm 15.0 11.5 1.5 40 5.9 WNW 9 11 5 6 1014.3 1013.8 0.0
05/11:00pm 14.9 12.4 1.4 40 5.9 WNW 4 9 2 5 1014.3 1013.8 0.0
05/10:30pm 15.7 12.4 0.3 35 6.6 SW 7 11 4 6 1014.4 1013.9 0.0
05/10:00pm 15.7 11.6 -0.5 33 6.9 SW 11 17 6 9 1014.8 1014.3 0.0
05/09:30pm 16.7 11.5 -0.1 32 7.3 WSW 17 24 9 13 1014.9 1014.4 0.0
05/09:00pm 17.1 11.4 -0.6 30 7.6 WSW 19 26 10 14 1014.5 1014.0 0.0
05/08:30pm 17.5 10.5 -0.7 29 7.8 W 26 35 14 19 1013.8 1013.3 0.0
05/08:00pm 18.0 10.1 -1.3 27 8.2 W 30 39 16 21 1013.2 1012.7 0.0
05/07:30pm 18.7 10.9 -0.7 27 8.4 W 30 43 16 23 1013.0 1012.5 0.0
05/07:00pm 19.8 11.8 0.3 27 8.7 WSW 32 48 17 26 1012.7 1012.2 0.0
05/06:30pm 20.6 13.2 -0.7 24 9.4 WSW 28 46 15 25 1012.1 1011.6 0.0
05/06:00pm 21.5 13.3 -1.1 22 10.0 WSW 32 43 17 23 1011.9 1011.4 0.0
05/05:30pm 21.9 14.2 -2.7 19 10.6 WSW 28 41 15 22 1012.0 1011.5 0.0
05/05:00pm 21.9 13.9 0.4 24 9.8 WSW 32 48 17 26 1012.1 1011.6 0.0
05/04:54pm 22.0 14.8 0.5 24 9.8 WSW 28 48 15 26 1012.0 1011.5 0.0
05/04:30pm 22.6 14.4 -0.8 21 10.5 WSW 32 46 17 25 1012.1 1011.6 0.0
05/04:00pm 22.1 14.7 -0.6 22 10.2 WSW 28 43 15 23 1012.4 1011.9 0.0
05/03:30pm 22.0 14.3 -0.1 23 10.0 W 30 43 16 23 1012.6 1012.1 0.0
05/03:00pm 22.3 15.1 0.8 24 9.9 WSW 28 41 15 22 1013.0 1012.5 0.0
05/02:30pm 21.4 14.6 0.6 25 9.5 SW 26 35 14 19 1013.3 1012.8 0.0
05/02:07pm 21.1 13.8 0.3 25 9.4 W 28 52 15 28 1013.3 1012.8 0.0
05/02:00pm 21.2 13.7 1.0 26 9.3 WSW 30 44 16 24 1013.6 1013.1 0.0
05/01:30pm 20.5 13.3 0.9 27 8.9 SW 28 41 15 22 1013.9 1013.4 0.0
05/01:16pm 20.2 12.5 0.1 26 9.0 WSW 30 54 16 29 1013.9 1013.4 0.0
05/01:00pm 20.3 12.2 0.7 27 8.9 WSW 33 44 18 24 1013.9 1013.4 0.0
05/12:30pm 19.9 11.7 0.4 27 8.7 WSW 33 52 18 28 1013.9 1013.4 0.0
05/12:14pm 19.9 11.9 0.4 27 8.7 WSW 32 50 17 27 1014.0 1013.5 0.0
05/12:00pm 19.5 11.4 -0.5 26 8.8 WSW 32 43 17 23 1014.1 1013.6 0.0
05/11:32am 18.7 10.7 0.3 29 8.2 WSW 32 50 17 27 1013.9 1013.4 0.0
05/11:30am 18.8 10.9 0.9 30 8.0 WSW 32 41 17 22 1013.9 1013.4 0.0
05/11:00am 18.5 11.4 1.1 31 7.8 WSW 28 44 15 24 1014.0 1013.5 0.0
05/10:30am 17.7 10.4 2.5 36 7.0 WSW 30 41 16 22 1013.7 1013.2 0.0
05/10:00am 16.8 8.9 2.0 37 6.7 W 33 43 18 23 1013.4 1012.9 0.0
05/09:30am 15.7 7.8 2.2 40 6.1 W 33 48 18 26 1012.8 1012.3 0.0
05/09:00am 15.7 8.7 2.2 40 6.1 W 28 41 15 22 1012.5 1012.0 0.0
05/08:30am 15.6 8.9 3.4 44 5.6 WSW 28 39 15 21 1012.0 1011.5 0.0
05/08:00am 15.6 9.6 5.5 51 4.9 WSW 26 37 14 20 1012.1 1011.6 0.0
05/07:30am 15.2 9.5 8.4 64 3.5 SW 28 48 15 26 1011.9 1011.4 0.0
05/07:28am 15.3 9.5 7.8 61 3.8 WSW 28 48 15 26 1011.9 1011.4 0.0
05/07:00am 15.6 9.7 9.1 65 3.4 WSW 30 46 16 25 1011.1 1010.6 0.0
05/06:57am 15.7 10.1 8.9 64 3.5 WSW 28 46 15 25 1011.0 1010.4 0.0
05/06:30am 16.2 10.4 9.4 64 3.6 W 30 43 16 23 1010.2 1009.6 0.0
05/06:00am 16.2 11.5 9.2 63 3.7 W 24 33 13 18 1009.9 1009.3 0.0
05/05:30am 16.1 11.0 9.3 64 3.5 W 26 35 14 19 1009.6 1009.0 0.0
05/05:00am 16.3 11.6 9.3 63 3.7 WNW 24 33 13 18 1009.4 1008.8 0.0
05/04:30am 16.7 12.0 9.1 61 4.0 WNW 24 35 13 19 1009.4 1008.8 0.0
05/04:00am 17.1 11.9 9.0 59 4.2 WNW 26 35 14 19 1009.5 1008.9 0.0
05/03:30am 17.5 12.2 8.6 56 4.6 WNW 26 39 14 21 1009.5 1008.9 0.0
05/03:00am 18.0 13.4 8.3 53 5.0 WNW 22 35 12 19 1009.4 1008.8 0.0
05/02:30am 18.3 13.9 7.4 49 5.6 WNW 20 28 11 15 1009.5 1008.9 0.0
05/02:00am 18.9 14.3 6.7 45 6.2 WNW 20 28 11 15 1009.7 1009.1 0.0
05/01:30am 19.5 14.9 5.6 40 6.9 WNW 19 26 10 14 1009.9 1009.3 0.0
05/01:00am 19.4 14.9 4.3 37 7.3 W 17 24 9 13 1010.0 1009.4 0.0
05/12:30am 20.2 16.0 3.9 34 7.9 WNW 15 20 8 11 1010.1 1009.5 0.0
05/12:00am 20.3 15.6 3.1 32 8.2 WNW 17 22 9 12 1010.2 1009.6 0.0
 
Date/Time
EDT
Temp
°C
App
Temp
°C
Dew
Point
Rel
Hum
%
Delta-T
°C
Wind Press
QNH
hPa
Press
MSL
hPa
Rain
since 9 am
mm
Dir
 
Spd
km/h
Gust
km/h
Spd
kts
Gust
kts
04/11:30pm 20.4 16.0 2.7 31 8.3 WNW 15 20 8 11 1010.1 1009.5 0.0
04/11:00pm 19.0 16.1 2.4 33 7.7 W 7 9 4 5 1010.4 1009.8 0.0
04/10:30pm 19.7 16.3 2.1 31 8.2 NNW 9 13 5 7 1010.5 1009.9 0.0
04/10:00pm 20.9 18.0 1.7 28 8.9 NW 6 7 3 4 1010.7 1010.1 0.0
04/09:30pm 20.4 17.4 1.8 29 8.6 NW 7 11 4 6 1010.6 1010.0 0.0
04/09:00pm 22.1 18.7 1.7 26 9.6 NW 9 13 5 7 1010.5 1009.9 0.0
04/08:30pm 22.7 18.6 2.2 26 9.7 WNW 13 17 7 9 1010.2 1009.6 0.0
04/08:00pm 24.3 19.1 2.5 24 10.6 WNW 19 26 10 14 1009.9 1009.3 0.0
04/07:30pm 25.6 20.5 2.9 23 11.2 WNW 19 26 10 14 1009.8 1009.2 0.0
04/07:00pm 26.9 21.4 2.1 20 12.1 WNW 20 30 11 16 1009.8 1009.2 0.0
04/06:30pm 27.7 21.2 0.5 17 13.0 W 24 33 13 18 1009.8 1009.2 0.0
04/06:00pm 28.5 22.8 0.3 16 13.5 W 20 28 11 15 1009.7 1009.1 0.0
04/05:30pm 28.8 22.2 -0.4 15 13.8 WNW 24 33 13 18 1009.7 1009.1 0.0
04/05:00pm 29.2 22.2 -3.1 12 14.7 WNW 24 35 13 19 1009.8 1009.2 0.0
04/04:30pm 29.8 23.3 -2.6 12 14.9 WNW 22 32 12 17 1010.2 1009.6 0.0
04/04:00pm 29.7 22.3 -3.9 11 15.1 WNW 26 35 14 19 1010.4 1009.8 0.0
04/03:30pm 29.7 23.1 -0.6 14 14.4 W 24 35 13 19 1010.8 1010.2 0.0
04/03:00pm 29.3 22.9 -1.9 13 14.5 W 22 30 12 16 1011.2 1010.7 0.0
04/02:30pm 29.1 23.4 0.7 16 13.7 W 20 30 11 16 1011.6 1011.1 0.0
04/02:00pm 28.9 23.2 0.6 16 13.7 W 20 33 11 18 1011.9 1011.4 0.0
04/01:30pm 28.2 22.6 0.9 17 13.2 WNW 20 32 11 17 1012.3 1011.8 0.0
04/01:00pm 27.4 22.5 1.8 19 12.5 WNW 17 30 9 16 1012.7 1012.2 0.0
04/12:30pm 26.8 22.1 3.3 22 11.7 W 17 24 9 13 1013.1 1012.6 0.0
04/12:00pm 25.8 23.2 5.9 28 10.3 SW 9 15 5 8 1013.5 1013.0 0.0
04/11:30am 25.1 21.1 4.8 27 10.3 WNW 15 26 8 14 1014.1 1013.6 0.0
04/11:00am 24.6 21.9 5.4 29 9.8 W 9 17 5 9 1014.4 1013.9 0.0
04/10:30am 23.4 22.4 7.5 36 8.4 SE 2 7 1 4 1014.4 1013.9 0.0
04/10:00am 21.0 20.1 7.6 42 7.0 ENE 2 6 1 3 1014.6 1014.1 0.0
04/09:30am 19.1 17.9 8.1 49 5.7 SE 4 9 2 5 1014.9 1014.4 0.0
04/09:00am 17.6 15.9 7.4 51 5.2 SE 6 9 3 5 1014.7 1014.2 0.0
04/08:30am 15.7 13.9 8.0 60 3.9 SSE 7 7 4 4 1014.5 1014.0 0.0
04/08:00am 14.5 13.1 8.9 69 2.9 SW 6 7 3 4 1014.3 1013.8 0.0
04/07:30am 13.0 12.4 7.5 69 2.7 CALM 0 0 0 0 1013.9 1013.4 0.0
04/07:00am 12.9 12.2 7.1 68 2.8 CALM 0 0 0 0 1013.5 1013.0 0.0
04/06:30am 13.3 12.7 7.5 68 2.9 CALM 0 6 0 3 1013.4 1012.9 0.0
04/06:00am 13.6 13.1 7.8 68 2.9 CALM 0 0 0 0 1013.0 1012.5 0.0
04/05:30am 13.7 13.1 7.5 66 3.1 CALM 0 0 0 0 1012.6 1012.1 0.0
04/05:00am 14.8 14.3 7.8 63 3.5 CALM 0 0 0 0 1012.4 1011.9 0.0
04/04:30am 15.0 14.6 8.3 64 3.4 CALM 0 0 0 0 1012.4 1011.9 0.0
04/04:00am 15.0 14.7 8.5 65 3.3 CALM 0 0 0 0 1012.5 1012.0 0.0
04/03:30am 15.4 14.7 8.4 63 3.6 E 2 7 1 4 1012.7 1012.2 0.0
04/03:00am 14.8 13.9 7.8 63 3.5 E 2 7 1 4 1012.8 1012.3 0.0
04/02:30am 15.3 14.7 7.3 59 4.0 CALM 0 0 0 0 1012.8 1012.3 0.0
04/02:00am 15.7 15.2 8.0 60 3.9 CALM 0 0 0 0 1013.1 1012.6 0.0
04/01:30am 16.2 15.6 7.2 55 4.5 CALM 0 0 0 0 1013.2 1012.7 0.0
04/01:00am 17.6 16.8 6.5 48 5.5 CALM 0 0 0 0 1013.3 1012.8 0.0
04/12:30am 17.6 16.9 6.8 49 5.4 CALM 0 0 0 0 1013.3 1012.8 0.0
04/12:00am 19.6 18.8 6.3 42 6.7 CALM 0 0 0 0 1013.2 1012.7 0.0
 
Date/Time
EDT
Temp
°C
App
Temp
°C
Dew
Point
Rel
Hum
%
Delta-T
°C
Wind Press
QNH
hPa
Press
MSL
hPa
Rain
since 9 am
mm
Dir
 
Spd
km/h
Gust
km/h
Spd
kts
Gust
kts
03/11:30pm 21.0 19.2 5.4 36 7.8 N 4 7 2 4 1013.4 1012.9 0.0
03/11:00pm 22.5 19.7 5.0 32 8.8 W 9 9 5 5 1013.3 1012.8 0.0
03/10:30pm 22.6 19.3 4.6 31 8.9 W 11 15 6 8 1013.3 1012.8 0.0
03/10:00pm 23.3 20.0 4.3 29 9.4 W 11 13 6 7 1013.1 1012.6 0.0
03/09:30pm 24.1 20.7 4.0 27 10.0 W 11 15 6 8 1012.9 1012.4 0.0
03/09:00pm 24.6 21.4 3.3 25 10.5 W 9 13 5 7 1012.6 1012.1 0.0
03/08:30pm 25.4 21.0 2.8 23 11.1 WNW 15 19 8 10 1012.3 1011.8 0.0

Other Formats:

Comma delimited format used in spreadsheet applications
http://www.bom.gov.au/fwo/IDV60801/IDV60801.95896.axf

JavaScript Object Notation format (JSON) in row-major order
http://www.bom.gov.au/fwo/IDV60801/IDV60801.95896.json